AirNav   ProFlight Series 2 Aviation Headset
 
 1008 users online  

0CL3 John Nichol's Field Airport
Chula Vista, California, USA

GOING TO CHULA VISTA?


FAA INFORMATION EFFECTIVE 16 JULY 2020

Location

FAA Identifier: 0CL3
Lat/Long: 32-38-00.1400N 116-53-25.1200W
32-38.002333N 116-53.418667W
32.6333722,-116.8903111
(estimated)
Elevation: 500 ft. / 152 m (estimated)
Variation: 13E (1985)
From city: 10 miles E of CHULA VISTA, CA
Time zone: UTC -7 (UTC -8 during Standard Time)
Zip code: 91915

Airport Operations

Airport use: Private use. Permission required prior to landing
Activation date: 10/1987
Control tower: no
ARTCC: LOS ANGELES CENTER
FSS: SAN DIEGO FLIGHT SERVICE STATION
Attendance: 0800-SS
Wind indicator: yes
Segmented circle: yes

Airport Communications

WX ASOS at SDM (6 nm SW): 132.35 (619-661-8297)
WX ASOS at NRS (12 nm W): PHONE 619-437-9890
WX AWOS-3P at SEE (12 nm N): 125.45 (619-449-1228)
WX ASOS at SAN (16 nm W): PHONE 619-296-8934
WX ASOS at MYF (17 nm NW): 126.9 (858-576-4337)

Nearby radio navigation aids

VOR radial/distance  VOR name  Freq  Var
PGYr059/4.7POGGI VORTAC116.4514E
TIJr016/6.4TIJUANA VOR/DME116.5014E
MZBr103/19.1MISSION BAY VORTAC117.8015E
JLIr192/34.1JULIAN VORTAC114.0015E

Airport Services

Runway Information

Runway 9/27

Dimensions: 2036 x 30 ft. / 621 x 9 m
WESTERN 220 FT GRAVEL.
Surface: asphalt
RUNWAY 9  RUNWAY 27
Latitude: 32-38.050167N32-37.954500N
Longitude: 116-53.608833W116-53.228500W
Elevation: 488.0 ft.500.0 ft.
Traffic pattern: rightleft
Displaced threshold: 220 ft.no

Airport Ownership and Management from official FAA records

Ownership: Privately-owned
Owner: TACTICAL AIR OPERATIONS, INC.
13531 OTAY LAKES ROAD
JAMUL, CA 92035
Phone 619-216-8416
Manager: ALAN FINK, PRES.
860 COUNTRY CLUB LANE
CORONADO, CA 92118
Phone 619-216-8416

Airport Operational Statistics

Aircraft based on the field: 23
Multi engine airplanes: 3
Ultralights: 20
    

Additional Remarks

FOR CD CTC LOS ANGELES ARTCC AT 661-575-2079.

Instrument Procedures

There are no published instrument procedures at 0CL3.

Some nearby airports with instrument procedures:

KSDM - Brown Field Municipal Airport (6 nm SW)
KNRS - Imperial Beach Naval Outlying Field (Ream Field) (12 nm W)
KSEE - Gillespie Field Airport (12 nm N)
KSAN - San Diego International Airport (16 nm W)
KMYF - Montgomery-Gibbs Executive Airport (17 nm NW)
KNZY - North Island Naval Air Station (Halsey Field) (17 nm W)
KNKX - Miramar MCAS (Joe Foss Field) Airport (19 nm NW)
 
Loc | Ops | Rwys | IFR | FBO | Links
Com | Nav | Svcs | Stats | Notes
Area around 0CL3 (John Nichol's Field Airport)
 
Road maps at: MapQuest Bing Google
 
Aerial photo
No photo
 
Sectional chart

 
Airport distance calculator
Flying to John Nichol's Field Airport? Find the distance to fly.

From to 0CL3

Sunrise and sunset
Times for 11-Aug-2020
 Local
(UTC-7)
 Zulu
(UTC)
Morning civil twilight05:4412:44
Sunrise06:1013:10
Sunset19:3502:35
Evening civil twilight20:0103:01

Current date and time
Zulu (UTC)  12-Aug-2020 02:02:31
Local (UTC-7)  11-Aug-2020 19:02:31
 
METAR
KSDM 
6nm SW 
120153Z 27007KT 10SM CLR 21/16 A2987 RMK AO2 SLP109 T02110161
MMTJ 
7nm SW 
120143Z 28011KT 8SM SKC 21/17 A2989 RMK HZY DSNT FU 1ST QUAD SC W
KSEE 
12nm N 
120155Z AUTO 28010KT 10SM CLR 25/15 A2984 RMK AO2
KNRS 
12nm W 
120156Z 10SM CLR A2987 RMK AO2 SLP116 $
KSAN 
16nm W 
120151Z 29009KT 10SM FEW013 FEW060 21/16 A2987 RMK AO2 SLP115 T02110161
KMYF 
16nm NW 
120153Z 29006KT 10SM CLR 23/16 A2987 RMK AO2 SLP108 T02280156
KNZY 
17nm W 
120152Z 31010KT 10SM FEW012 FEW060 22/16 A2985 RMK AO2 SLP109 T02170161 $
KNKX 
19nm NW 
120055Z 30007KT 10SM CLR 24/17 A2987 RMK SLP108 T02390167
TAF
MMTJ 
7nm SW 
111649Z 1118/1224 29012KT 5SM HZ SKC TX26/1120Z TN16/1210Z FM120500 00000KT 5SM HZ BKN010 FM120900 00000KT 3SM BR OVC006 TEMPO 1211/1215 1SM BR OVC003 FM121600 00000KT 4SM HZ BKN008 FM121800 28010KT P6SM SKC
KSAN 
16nm W 
112035Z 1121/1224 29012KT P6SM FEW014 FM120300 31006KT P6SM SCT010 FM120500 VRB04KT 5SM BR BKN010 FM121100 VRB03KT 3SM BR OVC007 FM121630 29006KT P6SM FEW012 FM122000 29011KT P6SM FEW015
KNZY 
17nm W 
1123/1223 31011KT 9999 FEW010 QNH2983INS BECMG 1205/1207 VRB06KT 9999 BKN010 QNH2985INS TEMPO 1210/1216 6000 BR OVC006 FM121800 31011KT 9999 FEW015 FEW200 QNH2984INS T18/1212Z T23/1221Z FS30022
KNKX 
19nm NW 
1121/1221 27010KT 9999 SKC QNH2987INS BECMG 1206/1208 VRB06KT 9999 OVC010 QNH2993INS TEMPO 1208/1214 OVC005 FM121530 VRB05KT 9999 FEW015 QNH2989INS T30/1121Z T20/1212Z
NOTAMs
Click for the latest NOTAMs
NOTAMs are issued by the DoD/FAA and will open in a separate window not controlled by AirNav.

 

 
 

Would you like to see your business listed on this page?

 If your business provides an interesting product or service to pilots, flight crews, aircraft, or users of the John Nichol's Field Airport, you should consider listing it here.  To start the listing process, click on the button below
 
Add a business
 

Other Pages about John Nichol's Field Airport

Update a link
 
Copyright © AirNav, LLC. All rights reserved. Privacy Policy  Contact